Time;durP1;ratioP1;P1;durP2;ratioP2;P2;SDS_P1;SDS_P2;PMS_P1;PMS_P2;Temp;Humidity;BMP_temperature;BMP_pressure;BME280_temperature;BME280_humidity;BME280_pressure;Samples;Min_cycle;Max_cycle;Signal;HPM_P1;HPM_P2
2023/09/06 00:01:24;;;;;;;13.13;6.40;;;;;;;;;;5035936;28;20041;-70
2023/09/06 00:03:50;;;;;;;11.90;6.03;;;;;;;;;;5035206;28;20021;-69
2023/09/06 00:06:18;;;;;;;8.60;6.35;;;;;;;;;;5036164;28;20087;-69
2023/09/06 00:08:45;;;;;;;8.98;6.10;;;;;;;;;;5034253;28;20044;-70
2023/09/06 00:11:11;;;;;;;10.35;6.75;;;;;;;;;;5033906;28;20487;-69
2023/09/06 00:13:37;;;;;;;13.50;6.75;;;;;;;;;;5034476;28;20021;-69
2023/09/06 00:16:04;;;;;;;12.77;6.32;;;;;;;;;;5034731;28;20029;-70
2023/09/06 00:18:30;;;;;;;10.15;5.70;;;;;;;;;;5034803;28;20075;-71
2023/09/06 00:20:57;;;;;;;9.55;5.57;;;;;;;;;;5035555;28;20390;-70
2023/09/06 00:23:27;;;;;;;10.45;5.75;;;;;;;;;;5034977;28;20509;-70
2023/09/06 00:25:53;;;;;;;10.73;5.13;;;;;;;;;;5035063;28;20041;-72
2023/09/06 00:28:20;;;;;;;14.43;5.43;;;;;;;;;;5049693;28;20051;-72
2023/09/06 00:30:46;;;;;;;11.93;5.15;;;;;;;;;;5050705;28;20127;-72
2023/09/06 00:33:13;;;;;;;12.30;5.57;;;;;;;;;;5036780;28;20120;-71
2023/09/06 00:35:39;;;;;;;8.40;4.32;;;;;;;;;;5037366;28;20033;-71
2023/09/06 00:38:05;;;;;;;13.68;5.78;;;;;;;;;;5036659;28;20022;-70
2023/09/06 00:40:35;;;;;;;12.55;4.97;;;;;;;;;;5052669;28;20435;-71
2023/09/06 00:43:03;;;;;;;16.10;5.53;;;;;;;;;;5037800;28;20049;-71
2023/09/06 00:45:47;;;;;;;14.13;5.28;;;;;;;;;;5036378;28;20064;-70
2023/09/06 00:48:22;;;;;;;10.30;5.10;;;;;;;;;;5030699;28;20272;-71
2023/09/06 00:50:51;;;;;;;12.57;5.30;;;;;;;;;;5013136;28;20563;-70
2023/09/06 00:53:18;;;;;;;16.17;6.00;;;;;;;;;;5019004;28;20452;-70
2023/09/06 00:55:44;;;;;;;10.70;4.65;;;;;;;;;;5032340;28;20112;-71
2023/09/06 00:58:17;;;;;;;8.60;4.93;;;;;;;;;;5032423;28;20109;-71
2023/09/06 01:00:44;;;;;;;11.30;5.30;;;;;;;;;;5033950;28;20072;-71
2023/09/06 01:03:10;;;;;;;10.38;4.85;;;;;;;;;;5033522;28;20045;-70
2023/09/06 01:05:44;;;;;;;10.05;5.15;;;;;;;;;;5049158;28;20501;-70
2023/09/06 01:08:17;;;;;;;9.88;5.30;;;;;;;;;;5033955;28;20075;-70
2023/09/06 01:10:43;;;;;;;11.70;5.30;;;;;;;;;;5050601;28;20037;-69
2023/09/06 01:13:08;;;;;;;11.48;4.82;;;;;;;;;;5049880;28;20091;-70
2023/09/06 01:15:35;;;;;;;12.77;4.75;;;;;;;;;;5049869;28;20124;-71
2023/09/06 01:18:04;;;;;;;17.33;5.53;;;;;;;;;;5031035;28;20025;-70
2023/09/06 01:20:43;;;;;;;11.55;4.63;;;;;;;;;;5017924;28;20029;-70
2023/09/06 01:23:34;;;;;;;11.10;4.63;;;;;;;;;;5018452;28;20120;-70
2023/09/06 01:26:01;;;;;;;9.68;4.72;;;;;;;;;;5023701;28;20045;-71
2023/09/06 01:28:27;;;;;;;10.07;5.55;;;;;;;;;;5030326;28;20032;-72
2023/09/06 01:30:59;;;;;;;12.93;5.25;;;;;;;;;;5040060;28;20102;-70
2023/09/06 01:33:27;;;;;;;8.10;4.68;;;;;;;;;;5031208;28;20048;-69
2023/09/06 01:35:54;;;;;;;10.85;5.07;;;;;;;;;;5032500;28;20048;-71
2023/09/06 01:38:22;;;;;;;12.52;5.20;;;;;;;;;;5031625;28;20124;-70
2023/09/06 01:40:47;;;;;;;9.55;4.97;;;;;;;;;;5031920;28;20112;-70
2023/09/06 01:43:13;;;;;;;10.13;5.47;;;;;;;;;;5033281;28;20418;-70
2023/09/06 01:45:51;;;;;;;9.45;5.13;;;;;;;;;;5033128;28;20024;-70
2023/09/06 01:48:18;;;;;;;13.10;5.38;;;;;;;;;;5031715;28;20475;-70
2023/09/06 01:50:44;;;;;;;12.25;5.13;;;;;;;;;;5032865;28;20017;-70
2023/09/06 01:53:13;;;;;;;11.90;5.32;;;;;;;;;;5031254;28;20038;-70
2023/09/06 01:55:42;;;;;;;11.60;5.80;;;;;;;;;;5031436;28;20025;-69
2023/09/06 01:58:09;;;;;;;13.35;5.40;;;;;;;;;;5034371;28;20490;-69
2023/09/06 02:00:37;;;;;;;11.27;5.30;;;;;;;;;;5031536;28;20029;-69
2023/09/06 02:03:05;;;;;;;9.98;5.85;;;;;;;;;;5031209;28;20032;-69
2023/09/06 02:05:31;;;;;;;11.73;5.72;;;;;;;;;;5031365;28;20043;-70
2023/09/06 02:07:57;;;;;;;9.23;6.07;;;;;;;;;;5031346;28;20088;-70
2023/09/06 02:10:23;;;;;;;12.68;5.65;;;;;;;;;;5031332;28;20390;-70
2023/09/06 02:12:49;;;;;;;10.30;5.70;;;;;;;;;;5032256;28;20037;-70
2023/09/06 02:15:15;;;;;;;12.27;6.53;;;;;;;;;;5032475;28;20483;-71
2023/09/06 02:17:42;;;;;;;10.25;6.57;;;;;;;;;;5031156;28;20044;-72
2023/09/06 02:20:15;;;;;;;10.30;6.20;;;;;;;;;;5031039;28;20116;-69
2023/09/06 02:22:41;;;;;;;11.10;6.03;;;;;;;;;;5030771;28;20152;-70
2023/09/06 02:25:12;;;;;;;9.55;6.00;;;;;;;;;;5032439;28;20129;-70
2023/09/06 02:27:38;;;;;;;8.90;5.70;;;;;;;;;;5030990;28;20049;-69
2023/09/06 02:30:05;;;;;;;12.60;6.30;;;;;;;;;;5030819;28;20035;-71
2023/09/06 02:32:32;;;;;;;8.50;5.47;;;;;;;;;;5030472;28;20103;-72
2023/09/06 02:34:58;;;;;;;14.02;6.75;;;;;;;;;;5031017;28;20017;-69
2023/09/06 02:37:25;;;;;;;9.60;5.60;;;;;;;;;;5014956;28;20065;-69
2023/09/06 02:39:53;;;;;;;10.75;5.80;;;;;;;;;;5030789;28;20112;-69
2023/09/06 02:42:20;;;;;;;14.15;6.10;;;;;;;;;;5027805;28;20099;-69
2023/09/06 02:44:46;;;;;;;9.82;5.47;;;;;;;;;;5028335;28;20029;-70
2023/09/06 02:47:15;;;;;;;7.72;6.07;;;;;;;;;;5028915;28;20052;-69
2023/09/06 02:49:54;;;;;;;14.20;6.15;;;;;;;;;;5030187;28;20021;-70
2023/09/06 02:52:28;;;;;;;12.15;6.35;;;;;;;;;;5045766;28;20554;-70
2023/09/06 02:54:58;;;;;;;9.70;6.70;;;;;;;;;;5027466;28;20088;-71
2023/09/06 02:57:25;;;;;;;9.00;6.30;;;;;;;;;;5031060;28;20040;-71
2023/09/06 02:59:51;;;;;;;11.48;7.05;;;;;;;;;;5030075;28;20028;-69
2023/09/06 03:02:22;;;;;;;10.02;6.45;;;;;;;;;;5030037;28;20034;-70
2023/09/06 03:04:54;;;;;;;11.00;6.28;;;;;;;;;;5026389;28;20398;-69
2023/09/06 03:07:22;;;;;;;9.88;6.60;;;;;;;;;;5032922;28;20034;-70
2023/09/06 03:09:49;;;;;;;8.98;6.40;;;;;;;;;;5033666;28;20021;-70
2023/09/06 03:12:16;;;;;;;10.73;6.25;;;;;;;;;;5031694;28;20127;-71
2023/09/06 03:14:45;;;;;;;10.02;6.38;;;;;;;;;;5025666;28;20025;-70
2023/09/06 03:17:11;;;;;;;11.13;6.80;;;;;;;;;;5044449;28;20433;-70
2023/09/06 03:19:41;;;;;;;11.02;6.63;;;;;;;;;;5034152;28;20033;-70
2023/09/06 03:22:12;;;;;;;11.50;7.18;;;;;;;;;;5029130;28;20111;-70
2023/09/06 03:24:40;;;;;;;13.95;7.70;;;;;;;;;;5049142;28;20030;-70
2023/09/06 03:27:07;;;;;;;15.32;8.13;;;;;;;;;;5026824;28;20057;-71
2023/09/06 03:29:37;;;;;;;11.63;8.38;;;;;;;;;;5029363;28;20498;-69
2023/09/06 03:32:07;;;;;;;13.55;8.77;;;;;;;;;;5032150;28;20538;-69
2023/09/06 03:34:36;;;;;;;13.52;7.80;;;;;;;;;;5021089;28;20121;-71
2023/09/06 03:37:04;;;;;;;10.32;7.72;;;;;;;;;;5034346;28;20017;-71
2023/09/06 03:39:42;;;;;;;11.48;6.78;;;;;;;;;;5034822;28;20129;-69
2023/09/06 03:42:10;;;;;;;9.35;6.95;;;;;;;;;;5021858;28;20475;-69
2023/09/06 03:44:37;;;;;;;9.43;6.30;;;;;;;;;;5021677;28;20075;-69
2023/09/06 03:47:13;;;;;;;11.15;6.88;;;;;;;;;;5028183;28;20036;-72
2023/09/06 03:49:45;;;;;;;8.70;6.30;;;;;;;;;;5034311;28;20057;-71
2023/09/06 03:52:10;;;;;;;10.68;7.05;;;;;;;;;;5023899;28;20044;-72
2023/09/06 03:55:09;;;;;;;8.98;7.05;;;;;;;;;;5019392;28;20037;-74
2023/09/06 03:57:37;;;;;;;13.35;7.32;;;;;;;;;;5032402;28;20042;-70
2023/09/06 04:00:26;;;;;;;13.32;7.35;;;;;;;;;;5033201;28;20032;-70
2023/09/06 04:03:03;;;;;;;12.23;7.45;;;;;;;;;;5027038;28;20093;-70
2023/09/06 04:05:32;;;;;;;11.20;8.02;;;;;;;;;;5045724;28;20383;-70
2023/09/06 04:08:03;;;;;;;15.20;8.68;;;;;;;;;;5019595;28;20026;-70
2023/09/06 04:10:36;;;;;;;15.55;9.20;;;;;;;;;;5028425;28;20033;-70
2023/09/06 04:13:05;;;;;;;11.88;7.40;;;;;;;;;;5024251;28;20042;-70
2023/09/06 04:15:36;;;;;;;15.27;8.57;;;;;;;;;;5031429;28;20112;-70
2023/09/06 04:18:04;;;;;;;10.10;6.85;;;;;;;;;;5026797;28;20497;-70
2023/09/06 04:20:37;;;;;;;8.77;6.40;;;;;;;;;;5030629;28;20049;-70
2023/09/06 04:23:05;;;;;;;10.25;6.60;;;;;;;;;;5028141;28;20333;-70
2023/09/06 04:25:44;;;;;;;10.18;6.55;;;;;;;;;;5032824;28;20048;-69
2023/09/06 04:28:13;;;;;;;10.45;7.20;;;;;;;;;;5029230;28;20048;-69
2023/09/06 04:30:42;;;;;;;11.98;6.80;;;;;;;;;;5031454;28;20034;-70
2023/09/06 04:33:14;;;;;;;6.45;4.10;;;;;;;;;;5023949;28;20083;-70
2023/09/06 04:35:48;;;;;;;5.85;3.60;;;;;;;;;;5040747;28;20116;-71
2023/09/06 04:38:20;;;;;;;5.38;3.70;;;;;;;;;;5028854;28;20443;-69
2023/09/06 04:40:48;;;;;;;4.63;3.77;;;;;;;;;;5048891;28;20456;-70
2023/09/06 04:43:17;;;;;;;7.43;3.35;;;;;;;;;;5023746;28;20143;-71
2023/09/06 04:45:43;;;;;;;6.28;4.05;;;;;;;;;;5027625;28;20120;-69
2023/09/06 04:48:11;;;;;;;6.90;3.85;;;;;;;;;;5048395;28;20095;-70
2023/09/06 04:50:40;;;;;;;4.93;3.80;;;;;;;;;;5030358;28;20044;-69
2023/09/06 04:53:08;;;;;;;5.38;3.67;;;;;;;;;;5012131;28;20053;-70
2023/09/06 04:55:37;;;;;;;6.32;4.68;;;;;;;;;;5015075;28;20029;-70
2023/09/06 04:58:07;;;;;;;6.88;4.53;;;;;;;;;;5029115;28;20029;-70
2023/09/06 05:00:38;;;;;;;7.15;3.70;;;;;;;;;;5029565;28;20418;-70
2023/09/06 05:03:10;;;;;;;7.30;4.10;;;;;;;;;;5031460;28;20032;-70
2023/09/06 05:05:39;;;;;;;7.03;3.67;;;;;;;;;;5030165;28;20056;-72
2023/09/06 05:08:06;;;;;;;5.63;3.30;;;;;;;;;;5048248;28;20038;-70
2023/09/06 05:10:32;;;;;;;5.07;3.08;;;;;;;;;;5025121;28;20033;-71
2023/09/06 05:12:58;;;;;;;4.10;3.17;;;;;;;;;;5047649;28;20039;-71
2023/09/06 05:15:25;;;;;;;6.30;3.40;;;;;;;;;;5028347;28;20041;-70
2023/09/06 05:17:50;;;;;;;4.53;3.10;;;;;;;;;;5044678;28;20030;-69
2023/09/06 05:20:33;;;;;;;4.38;3.13;;;;;;;;;;5026802;28;20045;-72
2023/09/06 05:23:06;;;;;;;4.72;4.00;;;;;;;;;;5024706;28;20029;-71
2023/09/06 05:25:34;;;;;;;6.18;4.32;;;;;;;;;;5023390;28;20091;-71
2023/09/06 05:28:03;;;;;;;5.60;3.95;;;;;;;;;;5048012;28;20022;-71
2023/09/06 05:30:30;;;;;;;5.18;3.75;;;;;;;;;;5024490;28;20191;-70
2023/09/06 05:32:56;;;;;;;7.50;4.28;;;;;;;;;;5030842;28;20033;-70
2023/09/06 05:35:24;;;;;;;5.78;4.00;;;;;;;;;;5030531;28;20029;-69
2023/09/06 05:37:50;;;;;;;10.02;3.75;;;;;;;;;;5024214;28;20033;-71
2023/09/06 05:40:22;;;;;;;7.40;4.20;;;;;;;;;;5035872;28;20084;-71
2023/09/06 05:42:50;;;;;;;;;;;;;;;;;;5031198;28;20391;-70
2023/09/06 05:45:21;;;;;;;7.82;3.97;;;;;;;;;;5047620;28;19920;-72
2023/09/06 05:47:48;;;;;;;5.82;4.00;;;;;;;;;;5028244;28;20501;-70
2023/09/06 05:50:14;;;;;;;7.30;3.47;;;;;;;;;;5027328;28;20029;-71
2023/09/06 05:52:41;;;;;;;6.57;4.22;;;;;;;;;;5004257;28;20038;-70
2023/09/06 05:55:08;;;;;;;5.28;3.97;;;;;;;;;;5025904;28;20048;-70
2023/09/06 05:57:34;;;;;;;6.00;4.22;;;;;;;;;;5028277;28;20034;-71
2023/09/06 06:00:06;;;;;;;6.43;4.50;;;;;;;;;;5032782;28;20033;-70
2023/09/06 06:02:41;;;;;;;8.70;5.45;;;;;;;;;;5024234;28;20029;-71
2023/09/06 06:05:09;;;;;;;8.18;4.75;;;;;;;;;;5030315;28;20038;-71
2023/09/06 06:07:35;;;;;;;7.65;4.68;;;;;;;;;;5027879;28;20030;-70
2023/09/06 06:10:01;;;;;;;10.07;4.97;;;;;;;;;;5030357;28;20029;-71
2023/09/06 06:12:27;;;;;;;9.23;5.60;;;;;;;;;;5023392;28;20041;-72
2023/09/06 06:14:53;;;;;;;9.82;5.80;;;;;;;;;;5031721;28;20030;-70
2023/09/06 06:17:19;;;;;;;10.23;5.32;;;;;;;;;;5031585;28;20052;-70
2023/09/06 06:19:45;;;;;;;8.18;5.18;;;;;;;;;;5015150;28;20033;-70
2023/09/06 06:22:11;;;;;;;12.20;6.00;;;;;;;;;;5031615;28;20021;-70
2023/09/06 06:24:37;;;;;;;8.07;5.55;;;;;;;;;;5031349;28;20246;-69
2023/09/06 06:27:04;;;;;;;8.27;5.22;;;;;;;;;;5031533;28;20509;-70
2023/09/06 06:29:30;;;;;;;7.18;5.68;;;;;;;;;;5031729;28;20140;-70
2023/09/06 06:31:56;;;;;;;10.25;5.63;;;;;;;;;;5021989;28;20309;-69
2023/09/06 06:34:24;;;;;;;9.70;6.45;;;;;;;;;;5030135;28;20044;-69
2023/09/06 06:36:49;;;;;;;10.02;5.95;;;;;;;;;;5031253;28;20033;-74
2023/09/06 06:39:17;;;;;;;9.73;5.32;;;;;;;;;;5016356;28;20040;-75
2023/09/06 06:41:44;;;;;;;9.15;6.22;;;;;;;;;;5027892;28;20029;-72
2023/09/06 06:44:13;;;;;;;11.10;5.82;;;;;;;;;;5024095;28;20033;-78
2023/09/06 06:46:39;;;;;;;11.85;6.47;;;;;;;;;;5016186;28;20048;-70
2023/09/06 06:49:07;;;;;;;14.48;5.65;;;;;;;;;;5042360;28;20179;-71
2023/09/06 06:51:40;;;;;;;14.70;6.05;;;;;;;;;;5014929;28;20101;-72
2023/09/06 06:54:09;;;;;;;8.32;5.85;;;;;;;;;;5016761;28;20057;-71
2023/09/06 06:56:36;;;;;;;10.15;5.72;;;;;;;;;;5028001;28;20108;-71
2023/09/06 06:59:07;;;;;;;7.72;4.75;;;;;;;;;;5031052;28;20053;-71
2023/09/06 07:01:33;;;;;;;12.85;5.15;;;;;;;;;;5031130;28;20025;-70
2023/09/06 07:04:00;;;;;;;10.98;5.03;;;;;;;;;;5029944;28;20379;-71
2023/09/06 07:06:29;;;;;;;10.20;4.90;;;;;;;;;;5030974;28;20040;-73
2023/09/06 07:08:54;;;;;;;10.93;5.30;;;;;;;;;;5023856;28;20080;-70
2023/09/06 07:11:21;;;;;;;7.70;4.57;;;;;;;;;;5030217;28;20451;-73
2023/09/06 07:13:49;;;;;;;12.93;5.85;;;;;;;;;;5029332;28;20462;-70
2023/09/06 07:16:17;;;;;;;8.30;4.68;;;;;;;;;;5029610;28;20033;-72
2023/09/06 07:18:43;;;;;;;9.10;4.38;;;;;;;;;;5028399;28;20114;-73
2023/09/06 07:21:09;;;;;;;8.93;4.95;;;;;;;;;;5022826;28;20491;-71
2023/09/06 07:23:35;;;;;;;12.30;4.32;;;;;;;;;;5029762;28;20043;-71
2023/09/06 07:26:02;;;;;;;15.77;5.13;;;;;;;;;;5018852;28;20030;-73
2023/09/06 07:28:39;;;;;;;7.25;4.20;;;;;;;;;;5028725;28;20511;-70
2023/09/06 07:31:07;;;;;;;9.23;4.78;;;;;;;;;;5023106;28;20406;-71
2023/09/06 07:33:34;;;;;;;11.45;4.57;;;;;;;;;;5028750;28;20437;-71
2023/09/06 07:36:01;;;;;;;8.88;5.07;;;;;;;;;;5021831;28;20041;-72
2023/09/06 07:38:27;;;;;;;7.53;4.28;;;;;;;;;;5026967;28;20135;-72
2023/09/06 07:41:11;;;;;;;11.02;5.07;;;;;;;;;;5029277;28;20060;-72
2023/09/06 07:43:38;;;;;;;9.45;4.93;;;;;;;;;;5030068;28;20033;-73
2023/09/06 07:46:08;;;;;;;8.27;5.45;;;;;;;;;;5029190;28;20036;-72
2023/09/06 07:48:35;;;;;;;6.45;4.55;;;;;;;;;;5028313;28;20033;-73
2023/09/06 07:51:04;;;;;;;9.50;4.60;;;;;;;;;;5029778;28;20026;-74
2023/09/06 07:53:30;;;;;;;9.02;4.70;;;;;;;;;;5029286;28;20410;-74
2023/09/06 07:55:56;;;;;;;7.70;4.68;;;;;;;;;;5032251;28;20584;-71
2023/09/06 07:58:23;;;;;;;10.57;5.25;;;;;;;;;;5030508;28;20044;-72
2023/09/06 08:00:51;;;;;;;15.07;5.40;;;;;;;;;;5034032;28;20033;-76
2023/09/06 08:03:18;;;;;;;10.85;5.38;;;;;;;;;;5033618;28;20048;-73
2023/09/06 08:05:46;;;;;;;10.68;5.72;;;;;;;;;;5034219;28;20530;-72
2023/09/06 08:08:12;;;;;;;12.52;5.13;;;;;;;;;;5034047;28;20033;-73
2023/09/06 08:10:39;;;;;;;11.07;5.50;;;;;;;;;;5031730;28;20029;-72
2023/09/06 08:13:07;;;;;;;9.15;5.13;;;;;;;;;;5032428;28;20427;-71
2023/09/06 08:15:35;;;;;;;8.80;5.15;;;;;;;;;;5033661;28;20064;-71
2023/09/06 08:18:03;;;;;;;15.95;5.32;;;;;;;;;;5031788;28;20395;-70
2023/09/06 08:20:33;;;;;;;10.43;5.40;;;;;;;;;;5034436;28;20025;-71
2023/09/06 08:22:59;;;;;;;13.32;5.45;;;;;;;;;;5036310;28;20079;-72
2023/09/06 08:25:25;;;;;;;10.75;4.80;;;;;;;;;;5065699;28;20037;-72
2023/09/06 08:27:51;;;;;;;8.07;5.63;;;;;;;;;;5032619;28;20306;-71
2023/09/06 08:30:19;;;;;;;10.13;5.13;;;;;;;;;;5033117;28;20475;-72
2023/09/06 08:32:48;;;;;;;9.00;4.95;;;;;;;;;;5033359;28;20112;-72
2023/09/06 08:35:15;;;;;;;8.25;5.13;;;;;;;;;;5033333;28;20040;-72
2023/09/06 08:37:41;;;;;;;9.75;5.25;;;;;;;;;;5033342;28;20030;-72
2023/09/06 08:40:07;;;;;;;9.77;5.30;;;;;;;;;;5033284;28;20086;-72
2023/09/06 08:42:35;;;;;;;12.95;5.15;;;;;;;;;;5064854;28;20053;-75
2023/09/06 08:45:04;;;;;;;11.68;5.22;;;;;;;;;;5032528;28;20025;-74
2023/09/06 08:47:30;;;;;;;11.40;4.43;;;;;;;;;;5030405;28;20055;-73
2023/09/06 08:49:56;;;;;;;10.38;5.10;;;;;;;;;;5031745;28;20029;-73
2023/09/06 08:52:23;;;;;;;8.98;4.55;;;;;;;;;;5029414;28;20044;-72
2023/09/06 08:54:49;;;;;;;9.10;4.72;;;;;;;;;;5032175;28;20030;-71
2023/09/06 08:57:15;;;;;;;8.82;4.85;;;;;;;;;;5047864;28;20037;-71
2023/09/06 08:59:42;;;;;;;7.05;4.55;;;;;;;;;;5033032;28;20026;-73
2023/09/06 09:02:13;;;;;;;9.70;4.93;;;;;;;;;;5015918;28;20034;-73
2023/09/06 09:04:42;;;;;;;7.60;4.43;;;;;;;;;;5033170;28;20033;-71
2023/09/06 09:07:13;;;;;;;12.00;5.28;;;;;;;;;;5032643;28;20033;-71
2023/09/06 09:09:59;;;;;;;8.63;4.63;;;;;;;;;;5032584;28;20033;-72
2023/09/06 09:12:26;;;;;;;16.13;5.20;;;;;;;;;;5032724;28;20033;-71
2023/09/06 09:14:54;;;;;;;9.30;4.93;;;;;;;;;;5032753;28;20030;-72
2023/09/06 09:17:24;;;;;;;13.45;6.43;;;;;;;;;;5032572;28;20033;-71
2023/09/06 09:19:54;;;;;;;10.48;5.05;;;;;;;;;;5032473;28;20120;-73
2023/09/06 09:22:22;;;;;;;8.63;4.57;;;;;;;;;;5032169;28;20048;-72
2023/09/06 09:24:48;;;;;;;12.25;4.82;;;;;;;;;;5032569;28;20033;-71
2023/09/06 09:27:18;;;;;;;9.40;4.90;;;;;;;;;;5030949;28;20111;-71
2023/09/06 09:29:47;;;;;;;11.00;4.50;;;;;;;;;;5032168;28;20120;-76
2023/09/06 09:32:14;;;;;;;10.70;4.95;;;;;;;;;;5013708;28;20034;-72
2023/09/06 09:34:41;;;;;;;8.45;5.63;;;;;;;;;;5031494;28;20499;-73
2023/09/06 09:37:10;;;;;;;12.15;5.22;;;;;;;;;;5032184;28;20141;-72
2023/09/06 09:39:39;;;;;;;10.90;5.22;;;;;;;;;;5030439;28;20469;-73
2023/09/06 09:42:08;;;;;;;10.98;5.80;;;;;;;;;;5029741;28;20445;-75
2023/09/06 09:44:34;;;;;;;9.98;6.05;;;;;;;;;;5031428;28;20046;-72
2023/09/06 09:47:12;;;;;;;9.32;5.20;;;;;;;;;;5032049;28;20391;-75
2023/09/06 09:49:41;;;;;;;8.43;4.30;;;;;;;;;;5026625;28;20517;-76
2023/09/06 09:52:17;;;;;;;8.85;4.22;;;;;;;;;;5030090;28;20025;-75
2023/09/06 09:54:47;;;;;;;8.07;4.25;;;;;;;;;;5030499;28;20037;-76
2023/09/06 09:57:14;;;;;;;8.82;4.65;;;;;;;;;;5029483;28;20188;-72
2023/09/06 09:59:42;;;;;;;12.45;4.30;;;;;;;;;;5031625;28;20100;-73
2023/09/06 10:02:15;;;;;;;8.43;4.18;;;;;;;;;;5029336;28;20038;-74
2023/09/06 10:04:42;;;;;;;;;;;;;;;;;;5011788;28;20037;-74
2023/09/06 10:07:11;;;;;;;8.25;4.63;;;;;;;;;;5011850;28;20477;-73
2023/09/06 10:09:39;;;;;;;10.10;4.65;;;;;;;;;;5027107;28;20093;-72
2023/09/06 10:12:09;;;;;;;9.57;4.75;;;;;;;;;;5030683;28;20033;-72
2023/09/06 10:14:39;;;;;;;8.95;4.65;;;;;;;;;;5026511;28;20030;-74
2023/09/06 10:17:08;;;;;;;6.78;4.30;;;;;;;;;;5011565;28;20091;-77
2023/09/06 10:19:36;;;;;;;9.57;4.43;;;;;;;;;;5010281;28;20026;-71
2023/09/06 10:22:04;;;;;;;9.23;4.13;;;;;;;;;;5022008;28;20013;-71
2023/09/06 10:24:35;;;;;;;9.18;4.35;;;;;;;;;;5029384;28;20037;-73
2023/09/06 10:27:02;;;;;;;10.82;4.15;;;;;;;;;;5031364;28;20044;-72
2023/09/06 10:29:30;;;;;;;11.82;4.30;;;;;;;;;;5031433;28;20026;-73
2023/09/06 10:32:03;;;;;;;7.63;3.97;;;;;;;;;;5029205;28;20059;-72
2023/09/06 10:34:32;;;;;;;6.13;3.47;;;;;;;;;;5041109;28;20494;-75
2023/09/06 10:37:00;;;;;;;9.48;4.28;;;;;;;;;;5030578;28;20044;-74
2023/09/06 10:39:30;;;;;;;10.05;4.18;;;;;;;;;;5030270;28;20033;-72
2023/09/06 10:42:09;;;;;;;7.35;3.83;;;;;;;;;;5045548;28;20491;-72
2023/09/06 10:44:53;;;;;;;10.10;4.82;;;;;;;;;;5030781;28;20061;-74
2023/09/06 10:47:39;;;;;;;9.90;3.97;;;;;;;;;;5030496;28;20033;-76
2023/09/06 10:50:18;;;;;;;11.48;4.40;;;;;;;;;;5043936;28;20487;-73
2023/09/06 10:53:01;;;;;;;12.55;4.53;;;;;;;;;;5028472;28;20033;-75
2023/09/06 10:55:30;;;;;;;9.30;4.70;;;;;;;;;;5030019;28;20083;-77
2023/09/06 10:57:58;;;;;;;9.05;5.00;;;;;;;;;;5028410;28;20105;-73
2023/09/06 11:00:34;;;;;;;8.10;4.88;;;;;;;;;;5030673;28;20564;-72
2023/09/06 11:03:09;;;;;;;9.60;5.25;;;;;;;;;;5028102;28;20037;-75
2023/09/06 11:05:37;;;;;;;12.13;4.78;;;;;;;;;;5012219;28;20033;-76
2023/09/06 11:08:04;;;;;;;8.43;4.53;;;;;;;;;;5029302;28;20099;-76
2023/09/06 11:10:35;;;;;;;9.55;4.65;;;;;;;;;;5029322;28;20037;-76
2023/09/06 11:13:12;;;;;;;7.00;4.00;;;;;;;;;;5027947;28;20041;-75
2023/09/06 11:15:41;;;;;;;10.98;4.10;;;;;;;;;;5031123;28;20104;-75
2023/09/06 11:18:09;;;;;;;12.88;4.68;;;;;;;;;;5029891;28;20040;-76
2023/09/06 11:20:35;;;;;;;10.63;4.70;;;;;;;;;;5030467;28;20045;-76
2023/09/06 11:23:03;;;;;;;5.68;3.83;;;;;;;;;;5031373;28;20044;-73
2023/09/06 11:25:31;;;;;;;11.57;4.63;;;;;;;;;;5030447;28;20041;-75
2023/09/06 11:28:00;;;;;;;8.48;4.47;;;;;;;;;;5030884;28;20025;-73
2023/09/06 11:30:31;;;;;;;9.80;4.72;;;;;;;;;;5033568;28;20037;-74
2023/09/06 11:32:57;;;;;;;11.70;4.50;;;;;;;;;;5035036;28;20041;-74
2023/09/06 11:35:32;;;;;;;10.32;4.97;;;;;;;;;;5034152;28;20031;-75
2023/09/06 11:37:59;;;;;;;7.05;4.85;;;;;;;;;;5032991;28;20037;-73
2023/09/06 11:40:28;;;;;;;9.40;5.63;;;;;;;;;;5034982;28;20044;-72
2023/09/06 11:43:04;;;;;;;10.73;5.10;;;;;;;;;;5034886;28;20083;-75
2023/09/06 11:45:32;;;;;;;11.60;6.60;;;;;;;;;;5035099;28;20040;-75
2023/09/06 11:48:04;;;;;;;13.00;5.47;;;;;;;;;;5034847;28;20060;-75
2023/09/06 11:50:32;;;;;;;11.52;6.47;;;;;;;;;;5035143;28;20061;-74
2023/09/06 11:53:04;;;;;;;15.35;9.73;;;;;;;;;;5034444;28;20079;-72
2023/09/06 11:55:34;;;;;;;10.23;5.20;;;;;;;;;;5034718;28;20037;-75
2023/09/06 11:58:00;;;;;;;13.77;6.88;;;;;;;;;;5034509;28;20029;-73
2023/09/06 12:00:45;;;;;;;9.60;5.25;;;;;;;;;;5034595;28;20033;-74
2023/09/06 12:03:27;;;;;;;12.18;5.40;;;;;;;;;;5034297;28;20120;-75
2023/09/06 12:05:56;;;;;;;12.60;6.63;;;;;;;;;;5034685;28;20036;-74
2023/09/06 12:08:23;;;;;;;10.63;4.63;;;;;;;;;;5035120;28;20033;-76
2023/09/06 12:10:59;;;;;;;11.27;5.30;;;;;;;;;;5049783;28;20108;-71
2023/09/06 12:13:29;;;;;;;7.38;4.57;;;;;;;;;;5035080;28;20052;-74
2023/09/06 12:15:59;;;;;;;8.88;5.45;;;;;;;;;;5034617;28;20033;-72
2023/09/06 12:18:26;;;;;;;7.93;4.78;;;;;;;;;;5034555;28;20024;-73
2023/09/06 12:20:53;;;;;;;8.07;5.15;;;;;;;;;;5034476;28;20060;-74
2023/09/06 12:23:22;;;;;;;9.55;5.18;;;;;;;;;;5034833;28;20028;-73
2023/09/06 12:25:48;;;;;;;10.77;4.78;;;;;;;;;;5034433;28;20483;-75
2023/09/06 12:28:14;;;;;;;7.88;4.80;;;;;;;;;;5034200;28;20112;-74
2023/09/06 12:30:40;;;;;;;11.90;4.90;;;;;;;;;;5034449;28;20408;-73
2023/09/06 12:33:08;;;;;;;9.98;5.10;;;;;;;;;;5033840;28;20040;-73
2023/09/06 12:35:38;;;;;;;10.35;4.88;;;;;;;;;;5033068;28;20400;-72
2023/09/06 12:38:07;;;;;;;10.15;5.47;;;;;;;;;;5034244;28;20115;-74
2023/09/06 12:40:34;;;;;;;7.25;4.85;;;;;;;;;;5033755;28;20035;-72
2023/09/06 12:43:00;;;;;;;13.32;5.22;;;;;;;;;;5047581;28;20025;-70
2023/09/06 12:45:33;;;;;;;11.82;5.43;;;;;;;;;;5033515;28;20073;-74
2023/09/06 12:48:00;;;;;;;10.55;4.70;;;;;;;;;;5032041;28;20087;-71
2023/09/06 12:50:27;;;;;;;10.30;4.65;;;;;;;;;;5034269;28;20091;-76
2023/09/06 12:52:54;;;;;;;10.02;5.05;;;;;;;;;;5032162;28;20036;-74
2023/09/06 12:55:20;;;;;;;6.43;4.32;;;;;;;;;;5033737;28;20033;-72
2023/09/06 12:57:46;;;;;;;10.05;4.70;;;;;;;;;;5033533;28;20132;-76
2023/09/06 13:00:13;;;;;;;6.47;4.45;;;;;;;;;;5032284;28;20033;-73
2023/09/06 13:02:40;;;;;;;10.80;4.40;;;;;;;;;;5032271;28;20033;-73
2023/09/06 13:05:09;;;;;;;11.38;4.63;;;;;;;;;;5032705;28;20219;-74
2023/09/06 13:07:36;;;;;;;8.07;4.32;;;;;;;;;;5033630;28;20044;-73
2023/09/06 13:10:03;;;;;;;8.32;4.13;;;;;;;;;;5048506;28;20025;-74
2023/09/06 13:12:30;;;;;;;6.60;3.90;;;;;;;;;;5033092;28;20048;-74
2023/09/06 13:14:56;;;;;;;7.88;4.15;;;;;;;;;;5033487;28;20562;-72
2023/09/06 13:17:23;;;;;;;8.90;4.03;;;;;;;;;;5032781;28;20088;-70
2023/09/06 13:19:49;;;;;;;5.43;4.00;;;;;;;;;;5048199;28;20029;-74
2023/09/06 13:22:16;;;;;;;5.95;3.70;;;;;;;;;;5032879;28;20033;-75
2023/09/06 13:24:42;;;;;;;7.10;3.92;;;;;;;;;;5031656;28;20112;-73
2023/09/06 13:27:08;;;;;;;9.77;4.50;;;;;;;;;;5033066;28;20048;-73
2023/09/06 13:29:35;;;;;;;7.57;4.78;;;;;;;;;;5032701;28;20382;-71
2023/09/06 13:32:03;;;;;;;8.20;4.70;;;;;;;;;;5032150;28;20060;-71
2023/09/06 13:34:29;;;;;;;6.47;4.10;;;;;;;;;;5031360;28;20029;-73
2023/09/06 13:36:55;;;;;;;7.35;4.10;;;;;;;;;;5032697;28;20032;-73
2023/09/06 13:39:21;;;;;;;8.48;4.30;;;;;;;;;;5031472;28;20036;-73
2023/09/06 13:41:48;;;;;;;7.07;4.35;;;;;;;;;;5032814;28;20038;-73
2023/09/06 13:44:14;;;;;;;8.00;4.45;;;;;;;;;;5030931;28;20473;-73
2023/09/06 13:46:40;;;;;;;7.10;3.75;;;;;;;;;;5032605;28;20034;-73
2023/09/06 13:49:07;;;;;;;8.07;4.32;;;;;;;;;;5031188;28;20060;-73
2023/09/06 13:51:36;;;;;;;9.48;4.30;;;;;;;;;;5031982;28;20125;-71
2023/09/06 13:54:06;;;;;;;9.32;4.55;;;;;;;;;;5032472;28;20505;-74
2023/09/06 13:56:33;;;;;;;9.18;4.50;;;;;;;;;;5032118;28;20079;-74
2023/09/06 13:58:59;;;;;;;6.65;4.20;;;;;;;;;;5032405;28;20038;-73
2023/09/06 14:01:26;;;;;;;6.22;4.20;;;;;;;;;;5032693;28;20029;-76
2023/09/06 14:03:52;;;;;;;8.35;4.78;;;;;;;;;;5031810;28;20398;-74
2023/09/06 14:06:18;;;;;;;9.68;5.32;;;;;;;;;;5030218;28;20041;-73
2023/09/06 14:08:44;;;;;;;7.72;4.78;;;;;;;;;;5032155;28;20033;-72
2023/09/06 14:11:10;;;;;;;9.13;4.72;;;;;;;;;;5032232;28;20382;-74
2023/09/06 14:13:36;;;;;;;10.55;5.68;;;;;;;;;;5031785;28;20033;-73
2023/09/06 14:16:03;;;;;;;8.80;4.43;;;;;;;;;;5032149;28;20025;-73
2023/09/06 14:18:29;;;;;;;8.48;4.90;;;;;;;;;;5032026;28;20524;-72
2023/09/06 14:20:55;;;;;;;9.32;5.97;;;;;;;;;;5031682;28;20021;-74
2023/09/06 14:23:21;;;;;;;11.75;5.68;;;;;;;;;;5032158;28;20061;-73
2023/09/06 14:25:48;;;;;;;7.60;5.47;;;;;;;;;;5031593;28;20026;-73
2023/09/06 14:28:14;;;;;;;12.07;6.47;;;;;;;;;;5032035;28;20037;-73
2023/09/06 14:30:41;;;;;;;9.25;6.00;;;;;;;;;;5032020;28;20033;-73
2023/09/06 14:33:08;;;;;;;12.55;6.32;;;;;;;;;;5031376;28;20045;-73
2023/09/06 14:35:45;;;;;;;10.75;6.47;;;;;;;;;;5031128;28;20029;-73
2023/09/06 14:38:16;;;;;;;13.80;6.75;;;;;;;;;;5031517;28;20511;-74
2023/09/06 14:40:44;;;;;;;11.13;7.05;;;;;;;;;;5031628;28;20040;-72
2023/09/06 14:43:10;;;;;;;13.65;6.78;;;;;;;;;;5031317;28;20423;-71
2023/09/06 14:45:37;;;;;;;8.55;6.15;;;;;;;;;;5030836;28;20556;-73
2023/09/06 14:48:04;;;;;;;9.00;6.38;;;;;;;;;;5031339;28;20036;-73